Schedule Details


Flight Number: CTN4467
Departure: Zurich (LSZH) at 10:05
Arrival: Cilipi (LDDU) at 12:00
Route: DEGES?N871?MADEB?N606?ELMEM?L607?GEDSO?DCT?TUTIV?DCT?GEMKA?L607?NERRA

Weather Information
LSZH 180020Z AUTO 29003KT 260V350 9999 NCD 20/15 Q1015 NOSIG
LDDU 180000Z VRB01KT CAVOK 19/17 Q1018
Schedule Frequency

Route Map